sensor_id;sensor_type;location;lat;lon;timestamp;P1;durP1;ratioP1;P2;durP2;ratioP2
20411;SDS011;10365;52.578;8.138;2024-01-27T00:01:20;24.77;;;2.78;;
20411;SDS011;10365;52.578;8.138;2024-01-27T00:03:45;19.52;;;2.72;;
20411;SDS011;10365;52.578;8.138;2024-01-27T00:06:10;19.52;;;2.78;;
20411;SDS011;10365;52.578;8.138;2024-01-27T00:08:36;31.42;;;3.25;;
20411;SDS011;10365;52.578;8.138;2024-01-27T00:11:01;21.48;;;3.75;;
20411;SDS011;10365;52.578;8.138;2024-01-27T00:13:27;20.17;;;2.70;;
20411;SDS011;10365;52.578;8.138;2024-01-27T00:15:52;28.98;;;2.65;;
20411;SDS011;10365;52.578;8.138;2024-01-27T00:18:19;21.08;;;2.35;;
20411;SDS011;10365;52.578;8.138;2024-01-27T00:20:45;16.98;;;2.65;;
20411;SDS011;10365;52.578;8.138;2024-01-27T00:23:10;26.98;;;2.33;;
20411;SDS011;10365;52.578;8.138;2024-01-27T00:25:36;19.08;;;3.15;;
20411;SDS011;10365;52.578;8.138;2024-01-27T00:28:01;30.65;;;2.70;;
20411;SDS011;10365;52.578;8.138;2024-01-27T00:30:26;26.67;;;2.58;;
20411;SDS011;10365;52.578;8.138;2024-01-27T00:32:52;18.70;;;2.92;;
20411;SDS011;10365;52.578;8.138;2024-01-27T00:35:17;22.02;;;2.55;;
20411;SDS011;10365;52.578;8.138;2024-01-27T00:37:42;30.00;;;2.67;;
20411;SDS011;10365;52.578;8.138;2024-01-27T00:40:08;14.23;;;2.15;;
20411;SDS011;10365;52.578;8.138;2024-01-27T00:42:34;21.38;;;2.55;;
20411;SDS011;10365;52.578;8.138;2024-01-27T00:44:59;23.98;;;2.15;;
20411;SDS011;10365;52.578;8.138;2024-01-27T00:47:25;19.13;;;2.40;;
20411;SDS011;10365;52.578;8.138;2024-01-27T00:49:50;33.25;;;3.20;;
20411;SDS011;10365;52.578;8.138;2024-01-27T00:52:15;24.98;;;3.95;;
20411;SDS011;10365;52.578;8.138;2024-01-27T00:54:41;26.95;;;3.40;;
20411;SDS011;10365;52.578;8.138;2024-01-27T00:57:06;18.00;;;2.83;;
20411;SDS011;10365;52.578;8.138;2024-01-27T00:59:31;24.73;;;3.63;;
20411;SDS011;10365;52.578;8.138;2024-01-27T01:01:57;20.15;;;2.92;;
20411;SDS011;10365;52.578;8.138;2024-01-27T01:04:22;22.58;;;2.45;;
20411;SDS011;10365;52.578;8.138;2024-01-27T01:06:47;26.13;;;2.47;;
20411;SDS011;10365;52.578;8.138;2024-01-27T01:09:13;23.75;;;2.78;;
20411;SDS011;10365;52.578;8.138;2024-01-27T01:11:38;15.32;;;2.08;;
20411;SDS011;10365;52.578;8.138;2024-01-27T01:14:04;19.10;;;2.72;;
20411;SDS011;10365;52.578;8.138;2024-01-27T01:16:29;21.23;;;2.58;;
20411;SDS011;10365;52.578;8.138;2024-01-27T01:18:57;31.27;;;3.03;;
20411;SDS011;10365;52.578;8.138;2024-01-27T01:21:23;15.98;;;2.75;;
20411;SDS011;10365;52.578;8.138;2024-01-27T01:23:48;15.93;;;2.47;;
20411;SDS011;10365;52.578;8.138;2024-01-27T01:26:13;16.38;;;2.83;;
20411;SDS011;10365;52.578;8.138;2024-01-27T01:28:39;18.95;;;2.65;;
20411;SDS011;10365;52.578;8.138;2024-01-27T01:31:06;27.98;;;3.72;;
20411;SDS011;10365;52.578;8.138;2024-01-27T01:33:31;16.55;;;2.13;;
20411;SDS011;10365;52.578;8.138;2024-01-27T01:35:56;18.98;;;2.30;;
20411;SDS011;10365;52.578;8.138;2024-01-27T01:38:22;27.73;;;2.70;;
20411;SDS011;10365;52.578;8.138;2024-01-27T01:40:47;23.05;;;2.30;;
20411;SDS011;10365;52.578;8.138;2024-01-27T01:43:12;22.67;;;2.75;;
20411;SDS011;10365;52.578;8.138;2024-01-27T01:45:38;27.00;;;2.78;;
20411;SDS011;10365;52.578;8.138;2024-01-27T01:48:03;17.85;;;2.60;;
20411;SDS011;10365;52.578;8.138;2024-01-27T01:50:29;24.40;;;3.08;;
20411;SDS011;10365;52.578;8.138;2024-01-27T01:52:54;22.83;;;2.83;;
20411;SDS011;10365;52.578;8.138;2024-01-27T01:55:20;20.05;;;3.33;;
20411;SDS011;10365;52.578;8.138;2024-01-27T01:57:46;23.25;;;3.03;;
20411;SDS011;10365;52.578;8.138;2024-01-27T02:00:12;15.80;;;2.40;;
20411;SDS011;10365;52.578;8.138;2024-01-27T02:02:37;13.45;;;2.58;;
20411;SDS011;10365;52.578;8.138;2024-01-27T02:05:02;20.13;;;2.90;;
20411;SDS011;10365;52.578;8.138;2024-01-27T02:07:28;14.80;;;2.42;;
20411;SDS011;10365;52.578;8.138;2024-01-27T02:09:53;17.98;;;2.22;;
20411;SDS011;10365;52.578;8.138;2024-01-27T02:12:19;15.07;;;1.92;;
20411;SDS011;10365;52.578;8.138;2024-01-27T02:14:44;26.88;;;3.65;;
20411;SDS011;10365;52.578;8.138;2024-01-27T02:17:09;20.67;;;2.83;;
20411;SDS011;10365;52.578;8.138;2024-01-27T02:19:35;22.88;;;3.33;;
20411;SDS011;10365;52.578;8.138;2024-01-27T02:22:00;20.48;;;3.20;;
20411;SDS011;10365;52.578;8.138;2024-01-27T02:24:25;23.05;;;2.97;;
20411;SDS011;10365;52.578;8.138;2024-01-27T02:26:52;24.05;;;4.85;;
20411;SDS011;10365;52.578;8.138;2024-01-27T02:29:17;16.85;;;2.72;;
20411;SDS011;10365;52.578;8.138;2024-01-27T02:31:45;17.88;;;2.65;;
20411;SDS011;10365;52.578;8.138;2024-01-27T02:34:10;19.80;;;3.83;;
20411;SDS011;10365;52.578;8.138;2024-01-27T02:36:36;24.70;;;2.83;;
20411;SDS011;10365;52.578;8.138;2024-01-27T02:39:01;22.10;;;3.53;;
20411;SDS011;10365;52.578;8.138;2024-01-27T02:41:27;21.20;;;3.13;;
20411;SDS011;10365;52.578;8.138;2024-01-27T02:43:52;27.02;;;3.45;;
20411;SDS011;10365;52.578;8.138;2024-01-27T02:46:18;20.35;;;2.47;;
20411;SDS011;10365;52.578;8.138;2024-01-27T02:48:44;21.05;;;2.60;;
20411;SDS011;10365;52.578;8.138;2024-01-27T02:51:09;21.13;;;2.85;;
20411;SDS011;10365;52.578;8.138;2024-01-27T02:53:34;17.98;;;2.22;;
20411;SDS011;10365;52.578;8.138;2024-01-27T02:56:00;23.55;;;3.08;;
20411;SDS011;10365;52.578;8.138;2024-01-27T02:58:25;23.98;;;3.03;;
20411;SDS011;10365;52.578;8.138;2024-01-27T03:00:50;16.35;;;2.10;;
20411;SDS011;10365;52.578;8.138;2024-01-27T03:03:16;13.38;;;3.00;;
20411;SDS011;10365;52.578;8.138;2024-01-27T03:05:41;18.33;;;2.55;;
20411;SDS011;10365;52.578;8.138;2024-01-27T03:08:06;24.48;;;3.05;;
20411;SDS011;10365;52.578;8.138;2024-01-27T03:10:32;21.58;;;2.33;;
20411;SDS011;10365;52.578;8.138;2024-01-27T03:12:57;15.07;;;2.97;;
20411;SDS011;10365;52.578;8.138;2024-01-27T03:15:22;17.08;;;2.08;;
20411;SDS011;10365;52.578;8.138;2024-01-27T03:17:48;26.20;;;3.35;;
20411;SDS011;10365;52.578;8.138;2024-01-27T03:20:13;21.95;;;2.85;;
20411;SDS011;10365;52.578;8.138;2024-01-27T03:22:38;20.75;;;3.42;;
20411;SDS011;10365;52.578;8.138;2024-01-27T03:25:05;25.35;;;2.75;;
20411;SDS011;10365;52.578;8.138;2024-01-27T03:27:31;13.00;;;2.33;;
20411;SDS011;10365;52.578;8.138;2024-01-27T03:29:58;19.55;;;3.35;;
20411;SDS011;10365;52.578;8.138;2024-01-27T03:32:23;15.27;;;2.42;;
20411;SDS011;10365;52.578;8.138;2024-01-27T03:34:49;17.67;;;2.85;;
20411;SDS011;10365;52.578;8.138;2024-01-27T03:37:14;18.17;;;2.40;;
20411;SDS011;10365;52.578;8.138;2024-01-27T03:39:42;15.15;;;2.78;;
20411;SDS011;10365;52.578;8.138;2024-01-27T03:42:08;19.33;;;2.60;;
20411;SDS011;10365;52.578;8.138;2024-01-27T03:44:33;21.65;;;2.67;;
20411;SDS011;10365;52.578;8.138;2024-01-27T03:46:58;11.82;;;3.03;;
20411;SDS011;10365;52.578;8.138;2024-01-27T03:49:24;17.88;;;2.90;;
20411;SDS011;10365;52.578;8.138;2024-01-27T03:51:49;12.75;;;2.63;;
20411;SDS011;10365;52.578;8.138;2024-01-27T03:54:15;17.77;;;3.20;;
20411;SDS011;10365;52.578;8.138;2024-01-27T03:56:43;19.92;;;3.45;;
20411;SDS011;10365;52.578;8.138;2024-01-27T03:59:08;14.27;;;2.80;;
20411;SDS011;10365;52.578;8.138;2024-01-27T04:01:36;32.78;;;3.17;;
20411;SDS011;10365;52.578;8.138;2024-01-27T04:04:01;20.20;;;3.13;;
20411;SDS011;10365;52.578;8.138;2024-01-27T04:06:26;18.30;;;2.70;;
20411;SDS011;10365;52.578;8.138;2024-01-27T04:08:52;21.52;;;3.25;;
20411;SDS011;10365;52.578;8.138;2024-01-27T04:11:23;13.30;;;2.78;;
20411;SDS011;10365;52.578;8.138;2024-01-27T04:13:49;20.48;;;3.38;;
20411;SDS011;10365;52.578;8.138;2024-01-27T04:16:15;20.27;;;3.33;;
20411;SDS011;10365;52.578;8.138;2024-01-27T04:18:41;21.63;;;2.70;;
20411;SDS011;10365;52.578;8.138;2024-01-27T04:21:06;13.77;;;2.90;;
20411;SDS011;10365;52.578;8.138;2024-01-27T04:23:32;17.63;;;3.22;;
20411;SDS011;10365;52.578;8.138;2024-01-27T04:25:58;27.38;;;3.60;;
20411;SDS011;10365;52.578;8.138;2024-01-27T04:28:23;16.00;;;2.70;;
20411;SDS011;10365;52.578;8.138;2024-01-27T04:30:49;25.70;;;3.47;;
20411;SDS011;10365;52.578;8.138;2024-01-27T04:33:14;13.90;;;3.33;;
20411;SDS011;10365;52.578;8.138;2024-01-27T04:35:40;20.63;;;2.95;;
20411;SDS011;10365;52.578;8.138;2024-01-27T04:38:07;15.07;;;2.70;;
20411;SDS011;10365;52.578;8.138;2024-01-27T04:40:32;20.35;;;3.67;;
20411;SDS011;10365;52.578;8.138;2024-01-27T04:42:58;23.30;;;3.78;;
20411;SDS011;10365;52.578;8.138;2024-01-27T04:45:24;18.73;;;3.08;;
20411;SDS011;10365;52.578;8.138;2024-01-27T04:47:49;23.92;;;3.33;;
20411;SDS011;10365;52.578;8.138;2024-01-27T04:50:14;16.88;;;3.38;;
20411;SDS011;10365;52.578;8.138;2024-01-27T04:52:39;24.55;;;2.85;;
20411;SDS011;10365;52.578;8.138;2024-01-27T04:55:06;20.58;;;3.70;;
20411;SDS011;10365;52.578;8.138;2024-01-27T04:57:31;15.07;;;3.97;;
20411;SDS011;10365;52.578;8.138;2024-01-27T04:59:57;15.90;;;2.95;;
20411;SDS011;10365;52.578;8.138;2024-01-27T05:02:22;20.55;;;4.05;;
20411;SDS011;10365;52.578;8.138;2024-01-27T05:04:47;19.00;;;3.75;;
20411;SDS011;10365;52.578;8.138;2024-01-27T05:07:12;15.10;;;3.20;;
20411;SDS011;10365;52.578;8.138;2024-01-27T05:09:38;30.55;;;4.20;;
20411;SDS011;10365;52.578;8.138;2024-01-27T05:12:03;13.52;;;4.13;;
20411;SDS011;10365;52.578;8.138;2024-01-27T05:14:29;12.52;;;3.25;;
20411;SDS011;10365;52.578;8.138;2024-01-27T05:16:54;22.20;;;3.92;;
20411;SDS011;10365;52.578;8.138;2024-01-27T05:19:20;13.98;;;3.60;;
20411;SDS011;10365;52.578;8.138;2024-01-27T05:21:46;22.75;;;3.75;;
20411;SDS011;10365;52.578;8.138;2024-01-27T05:24:11;16.83;;;3.25;;
20411;SDS011;10365;52.578;8.138;2024-01-27T05:26:37;23.10;;;4.10;;
20411;SDS011;10365;52.578;8.138;2024-01-27T05:29:02;16.65;;;3.33;;
20411;SDS011;10365;52.578;8.138;2024-01-27T05:31:27;20.63;;;4.30;;
20411;SDS011;10365;52.578;8.138;2024-01-27T05:33:53;18.63;;;4.10;;
20411;SDS011;10365;52.578;8.138;2024-01-27T05:36:18;18.90;;;4.55;;
20411;SDS011;10365;52.578;8.138;2024-01-27T05:38:43;18.55;;;3.83;;
20411;SDS011;10365;52.578;8.138;2024-01-27T05:41:09;20.83;;;3.80;;
20411;SDS011;10365;52.578;8.138;2024-01-27T05:43:34;19.10;;;4.03;;
20411;SDS011;10365;52.578;8.138;2024-01-27T05:45:59;26.13;;;4.63;;
20411;SDS011;10365;52.578;8.138;2024-01-27T05:48:25;23.67;;;4.57;;
20411;SDS011;10365;52.578;8.138;2024-01-27T05:51:00;30.60;;;4.97;;
20411;SDS011;10365;52.578;8.138;2024-01-27T05:53:25;22.58;;;4.97;;
20411;SDS011;10365;52.578;8.138;2024-01-27T05:55:51;22.25;;;4.95;;
20411;SDS011;10365;52.578;8.138;2024-01-27T05:58:16;22.30;;;5.45;;
20411;SDS011;10365;52.578;8.138;2024-01-27T06:00:44;23.77;;;4.68;;
20411;SDS011;10365;52.578;8.138;2024-01-27T06:03:10;24.42;;;4.80;;
20411;SDS011;10365;52.578;8.138;2024-01-27T06:05:35;23.73;;;5.40;;
20411;SDS011;10365;52.578;8.138;2024-01-27T06:08:00;27.88;;;5.78;;
20411;SDS011;10365;52.578;8.138;2024-01-27T06:10:26;20.60;;;4.38;;
20411;SDS011;10365;52.578;8.138;2024-01-27T06:12:51;18.00;;;5.20;;
20411;SDS011;10365;52.578;8.138;2024-01-27T06:15:16;20.05;;;5.65;;
20411;SDS011;10365;52.578;8.138;2024-01-27T06:17:42;17.60;;;5.80;;
20411;SDS011;10365;52.578;8.138;2024-01-27T06:20:07;28.05;;;6.68;;
20411;SDS011;10365;52.578;8.138;2024-01-27T06:22:33;27.60;;;6.40;;
20411;SDS011;10365;52.578;8.138;2024-01-27T06:25:01;24.70;;;6.50;;
20411;SDS011;10365;52.578;8.138;2024-01-27T06:27:27;21.00;;;6.22;;
20411;SDS011;10365;52.578;8.138;2024-01-27T06:29:52;30.40;;;7.00;;
20411;SDS011;10365;52.578;8.138;2024-01-27T06:32:17;26.33;;;6.85;;
20411;SDS011;10365;52.578;8.138;2024-01-27T06:34:43;26.55;;;7.82;;
20411;SDS011;10365;52.578;8.138;2024-01-27T06:37:08;28.67;;;7.57;;
20411;SDS011;10365;52.578;8.138;2024-01-27T06:39:33;30.88;;;5.97;;
20411;SDS011;10365;52.578;8.138;2024-01-27T06:41:58;29.30;;;7.95;;
20411;SDS011;10365;52.578;8.138;2024-01-27T06:44:24;25.75;;;8.73;;
20411;SDS011;10365;52.578;8.138;2024-01-27T06:46:49;20.88;;;7.80;;
20411;SDS011;10365;52.578;8.138;2024-01-27T06:49:15;34.28;;;8.90;;
20411;SDS011;10365;52.578;8.138;2024-01-27T06:51:41;22.50;;;8.18;;
20411;SDS011;10365;52.578;8.138;2024-01-27T06:54:06;37.88;;;8.82;;
20411;SDS011;10365;52.578;8.138;2024-01-27T06:56:32;22.15;;;7.78;;
20411;SDS011;10365;52.578;8.138;2024-01-27T06:58:57;27.38;;;8.80;;
20411;SDS011;10365;52.578;8.138;2024-01-27T07:01:22;29.63;;;9.68;;
20411;SDS011;10365;52.578;8.138;2024-01-27T07:03:48;34.90;;;9.60;;
20411;SDS011;10365;52.578;8.138;2024-01-27T07:06:13;31.13;;;9.23;;
20411;SDS011;10365;52.578;8.138;2024-01-27T07:08:38;31.77;;;9.38;;
20411;SDS011;10365;52.578;8.138;2024-01-27T07:11:04;28.83;;;9.20;;
20411;SDS011;10365;52.578;8.138;2024-01-27T07:13:29;29.60;;;9.95;;
20411;SDS011;10365;52.578;8.138;2024-01-27T07:15:55;26.35;;;9.48;;
20411;SDS011;10365;52.578;8.138;2024-01-27T07:18:21;38.08;;;10.65;;
20411;SDS011;10365;52.578;8.138;2024-01-27T07:20:47;33.50;;;9.93;;
20411;SDS011;10365;52.578;8.138;2024-01-27T07:23:12;38.17;;;10.70;;
20411;SDS011;10365;52.578;8.138;2024-01-27T07:25:38;33.53;;;9.98;;
20411;SDS011;10365;52.578;8.138;2024-01-27T07:28:03;30.40;;;9.68;;
20411;SDS011;10365;52.578;8.138;2024-01-27T07:30:28;25.35;;;10.85;;
20411;SDS011;10365;52.578;8.138;2024-01-27T07:32:54;32.85;;;10.88;;
20411;SDS011;10365;52.578;8.138;2024-01-27T07:35:20;34.20;;;11.50;;
20411;SDS011;10365;52.578;8.138;2024-01-27T07:37:45;25.48;;;10.68;;
20411;SDS011;10365;52.578;8.138;2024-01-27T07:40:10;28.92;;;11.20;;
20411;SDS011;10365;52.578;8.138;2024-01-27T07:42:36;23.80;;;10.82;;
20411;SDS011;10365;52.578;8.138;2024-01-27T07:45:01;30.10;;;11.23;;
20411;SDS011;10365;52.578;8.138;2024-01-27T07:47:26;30.75;;;11.40;;
20411;SDS011;10365;52.578;8.138;2024-01-27T07:49:52;29.90;;;10.65;;
20411;SDS011;10365;52.578;8.138;2024-01-27T07:52:18;26.45;;;10.65;;
20411;SDS011;10365;52.578;8.138;2024-01-27T07:54:43;28.80;;;11.95;;
20411;SDS011;10365;52.578;8.138;2024-01-27T07:57:09;30.70;;;10.48;;
20411;SDS011;10365;52.578;8.138;2024-01-27T07:59:35;31.20;;;12.55;;
20411;SDS011;10365;52.578;8.138;2024-01-27T08:02:00;26.08;;;11.38;;
20411;SDS011;10365;52.578;8.138;2024-01-27T08:04:26;35.63;;;12.10;;
20411;SDS011;10365;52.578;8.138;2024-01-27T08:06:51;28.00;;;12.07;;
20411;SDS011;10365;52.578;8.138;2024-01-27T08:09:17;30.50;;;12.38;;
20411;SDS011;10365;52.578;8.138;2024-01-27T08:11:42;26.13;;;11.88;;
20411;SDS011;10365;52.578;8.138;2024-01-27T08:14:08;32.80;;;12.77;;
20411;SDS011;10365;52.578;8.138;2024-01-27T08:16:33;41.30;;;13.02;;
20411;SDS011;10365;52.578;8.138;2024-01-27T08:18:59;32.90;;;12.27;;
20411;SDS011;10365;52.578;8.138;2024-01-27T08:21:24;39.83;;;13.85;;
20411;SDS011;10365;52.578;8.138;2024-01-27T08:23:49;27.17;;;10.80;;
20411;SDS011;10365;52.578;8.138;2024-01-27T08:26:14;28.52;;;12.10;;
20411;SDS011;10365;52.578;8.138;2024-01-27T08:28:40;37.92;;;11.70;;
20411;SDS011;10365;52.578;8.138;2024-01-27T08:31:05;26.55;;;11.90;;
20411;SDS011;10365;52.578;8.138;2024-01-27T08:33:31;31.85;;;12.98;;
20411;SDS011;10365;52.578;8.138;2024-01-27T08:35:57;30.92;;;12.50;;
20411;SDS011;10365;52.578;8.138;2024-01-27T08:38:22;39.60;;;12.63;;
20411;SDS011;10365;52.578;8.138;2024-01-27T08:40:49;46.65;;;13.52;;
20411;SDS011;10365;52.578;8.138;2024-01-27T08:43:14;32.92;;;14.07;;
20411;SDS011;10365;52.578;8.138;2024-01-27T08:45:39;30.73;;;12.82;;
20411;SDS011;10365;52.578;8.138;2024-01-27T08:48:05;29.52;;;12.48;;
20411;SDS011;10365;52.578;8.138;2024-01-27T08:50:30;35.00;;;14.77;;
20411;SDS011;10365;52.578;8.138;2024-01-27T08:52:56;39.78;;;15.15;;
20411;SDS011;10365;52.578;8.138;2024-01-27T08:55:21;34.55;;;14.02;;
20411;SDS011;10365;52.578;8.138;2024-01-27T08:57:52;26.70;;;13.40;;
20411;SDS011;10365;52.578;8.138;2024-01-27T09:00:17;36.33;;;13.70;;
20411;SDS011;10365;52.578;8.138;2024-01-27T09:02:43;54.70;;;17.13;;
20411;SDS011;10365;52.578;8.138;2024-01-27T09:05:08;30.35;;;14.88;;
20411;SDS011;10365;52.578;8.138;2024-01-27T09:07:34;36.97;;;15.30;;
20411;SDS011;10365;52.578;8.138;2024-01-27T09:10:00;40.50;;;15.38;;
20411;SDS011;10365;52.578;8.138;2024-01-27T09:12:25;32.22;;;16.60;;
20411;SDS011;10365;52.578;8.138;2024-01-27T09:14:50;29.88;;;14.00;;
20411;SDS011;10365;52.578;8.138;2024-01-27T09:17:16;35.33;;;13.75;;
20411;SDS011;10365;52.578;8.138;2024-01-27T09:19:42;37.38;;;14.43;;
20411;SDS011;10365;52.578;8.138;2024-01-27T09:22:08;36.60;;;13.18;;
20411;SDS011;10365;52.578;8.138;2024-01-27T09:24:33;34.47;;;12.55;;
20411;SDS011;10365;52.578;8.138;2024-01-27T09:26:59;27.83;;;12.90;;
20411;SDS011;10365;52.578;8.138;2024-01-27T09:29:24;25.35;;;12.00;;
20411;SDS011;10365;52.578;8.138;2024-01-27T09:31:49;36.20;;;11.50;;
20411;SDS011;10365;52.578;8.138;2024-01-27T09:34:14;31.52;;;12.45;;
20411;SDS011;10365;52.578;8.138;2024-01-27T09:36:40;29.63;;;11.77;;
20411;SDS011;10365;52.578;8.138;2024-01-27T09:39:05;28.58;;;9.35;;
20411;SDS011;10365;52.578;8.138;2024-01-27T09:41:31;28.33;;;9.40;;
20411;SDS011;10365;52.578;8.138;2024-01-27T09:44:00;23.48;;;9.60;;
20411;SDS011;10365;52.578;8.138;2024-01-27T09:46:27;19.48;;;8.23;;
20411;SDS011;10365;52.578;8.138;2024-01-27T09:48:53;21.92;;;8.02;;
20411;SDS011;10365;52.578;8.138;2024-01-27T09:51:19;26.83;;;8.95;;
20411;SDS011;10365;52.578;8.138;2024-01-27T09:53:44;17.58;;;7.85;;
20411;SDS011;10365;52.578;8.138;2024-01-27T09:56:10;24.63;;;8.13;;
20411;SDS011;10365;52.578;8.138;2024-01-27T09:58:37;17.85;;;7.65;;
20411;SDS011;10365;52.578;8.138;2024-01-27T10:01:02;25.27;;;8.55;;
20411;SDS011;10365;52.578;8.138;2024-01-27T10:03:28;31.90;;;7.88;;
20411;SDS011;10365;52.578;8.138;2024-01-27T10:05:54;21.85;;;7.03;;
20411;SDS011;10365;52.578;8.138;2024-01-27T10:08:20;17.52;;;7.38;;
20411;SDS011;10365;52.578;8.138;2024-01-27T10:10:46;17.90;;;6.82;;
20411;SDS011;10365;52.578;8.138;2024-01-27T10:13:12;17.85;;;7.63;;
20411;SDS011;10365;52.578;8.138;2024-01-27T10:15:39;20.33;;;6.82;;
20411;SDS011;10365;52.578;8.138;2024-01-27T10:18:07;25.10;;;8.07;;
20411;SDS011;10365;52.578;8.138;2024-01-27T10:20:33;19.67;;;7.45;;
20411;SDS011;10365;52.578;8.138;2024-01-27T10:22:59;18.45;;;7.07;;
20411;SDS011;10365;52.578;8.138;2024-01-27T10:25:24;19.63;;;7.35;;
20411;SDS011;10365;52.578;8.138;2024-01-27T10:27:55;19.30;;;7.25;;
20411;SDS011;10365;52.578;8.138;2024-01-27T10:30:20;18.27;;;7.22;;
20411;SDS011;10365;52.578;8.138;2024-01-27T10:32:55;20.80;;;7.45;;
20411;SDS011;10365;52.578;8.138;2024-01-27T10:35:21;23.13;;;7.45;;
20411;SDS011;10365;52.578;8.138;2024-01-27T10:37:50;13.88;;;6.57;;
20411;SDS011;10365;52.578;8.138;2024-01-27T10:40:16;19.02;;;7.22;;
20411;SDS011;10365;52.578;8.138;2024-01-27T10:42:41;13.52;;;6.90;;
20411;SDS011;10365;52.578;8.138;2024-01-27T10:45:08;20.50;;;7.40;;
20411;SDS011;10365;52.578;8.138;2024-01-27T10:47:34;23.73;;;8.07;;
20411;SDS011;10365;52.578;8.138;2024-01-27T10:50:00;15.00;;;7.03;;
20411;SDS011;10365;52.578;8.138;2024-01-27T10:52:32;20.55;;;6.65;;
20411;SDS011;10365;52.578;8.138;2024-01-27T10:55:00;23.13;;;7.35;;
20411;SDS011;10365;52.578;8.138;2024-01-27T10:57:28;16.77;;;6.68;;
20411;SDS011;10365;52.578;8.138;2024-01-27T10:59:54;20.15;;;7.38;;
20411;SDS011;10365;52.578;8.138;2024-01-27T11:02:20;17.60;;;7.35;;
20411;SDS011;10365;52.578;8.138;2024-01-27T11:04:48;15.13;;;6.70;;
20411;SDS011;10365;52.578;8.138;2024-01-27T11:07:13;16.73;;;6.68;;
20411;SDS011;10365;52.578;8.138;2024-01-27T11:09:38;14.55;;;6.38;;
20411;SDS011;10365;52.578;8.138;2024-01-27T11:12:04;19.38;;;6.90;;
20411;SDS011;10365;52.578;8.138;2024-01-27T11:14:30;22.73;;;7.28;;
20411;SDS011;10365;52.578;8.138;2024-01-27T11:16:56;17.92;;;6.32;;
20411;SDS011;10365;52.578;8.138;2024-01-27T11:19:21;18.33;;;7.07;;
20411;SDS011;10365;52.578;8.138;2024-01-27T11:21:47;20.27;;;6.70;;
20411;SDS011;10365;52.578;8.138;2024-01-27T11:26:38;22.13;;;7.03;;
20411;SDS011;10365;52.578;8.138;2024-01-27T11:29:06;23.20;;;8.10;;
20411;SDS011;10365;52.578;8.138;2024-01-27T11:31:34;17.88;;;7.43;;
20411;SDS011;10365;52.578;8.138;2024-01-27T11:34:00;16.40;;;6.68;;
20411;SDS011;10365;52.578;8.138;2024-01-27T11:36:25;16.52;;;6.90;;
20411;SDS011;10365;52.578;8.138;2024-01-27T11:38:52;19.27;;;5.88;;
20411;SDS011;10365;52.578;8.138;2024-01-27T11:41:27;20.98;;;6.80;;
20411;SDS011;10365;52.578;8.138;2024-01-27T11:43:53;14.45;;;6.13;;
20411;SDS011;10365;52.578;8.138;2024-01-27T11:46:18;19.33;;;6.55;;
20411;SDS011;10365;52.578;8.138;2024-01-27T11:48:44;19.02;;;6.15;;
20411;SDS011;10365;52.578;8.138;2024-01-27T11:51:13;17.52;;;6.20;;
20411;SDS011;10365;52.578;8.138;2024-01-27T11:53:39;15.45;;;5.57;;
20411;SDS011;10365;52.578;8.138;2024-01-27T11:56:05;13.93;;;5.65;;
20411;SDS011;10365;52.578;8.138;2024-01-27T11:58:30;19.48;;;6.07;;
20411;SDS011;10365;52.578;8.138;2024-01-27T12:00:57;12.30;;;5.93;;
20411;SDS011;10365;52.578;8.138;2024-01-27T12:03:28;16.48;;;6.18;;
20411;SDS011;10365;52.578;8.138;2024-01-27T12:05:54;18.40;;;7.13;;
20411;SDS011;10365;52.578;8.138;2024-01-27T12:08:20;19.83;;;6.35;;
20411;SDS011;10365;52.578;8.138;2024-01-27T12:10:45;16.20;;;6.50;;
20411;SDS011;10365;52.578;8.138;2024-01-27T12:13:11;14.63;;;5.93;;
20411;SDS011;10365;52.578;8.138;2024-01-27T12:15:36;17.38;;;6.60;;
20411;SDS011;10365;52.578;8.138;2024-01-27T12:18:01;16.77;;;5.65;;
20411;SDS011;10365;52.578;8.138;2024-01-27T12:20:29;17.52;;;5.25;;
20411;SDS011;10365;52.578;8.138;2024-01-27T12:23:04;18.60;;;5.55;;
20411;SDS011;10365;52.578;8.138;2024-01-27T12:25:29;17.80;;;5.75;;
20411;SDS011;10365;52.578;8.138;2024-01-27T12:27:55;21.02;;;6.28;;
20411;SDS011;10365;52.578;8.138;2024-01-27T12:30:20;17.70;;;5.72;;
20411;SDS011;10365;52.578;8.138;2024-01-27T12:32:46;15.65;;;5.82;;
20411;SDS011;10365;52.578;8.138;2024-01-27T12:35:11;18.75;;;5.72;;
20411;SDS011;10365;52.578;8.138;2024-01-27T12:37:37;15.50;;;5.88;;
20411;SDS011;10365;52.578;8.138;2024-01-27T12:40:14;17.45;;;5.65;;
20411;SDS011;10365;52.578;8.138;2024-01-27T12:42:41;18.85;;;4.88;;
20411;SDS011;10365;52.578;8.138;2024-01-27T12:45:06;17.15;;;5.88;;
20411;SDS011;10365;52.578;8.138;2024-01-27T12:47:32;17.83;;;4.95;;
20411;SDS011;10365;52.578;8.138;2024-01-27T12:49:58;18.13;;;5.20;;
20411;SDS011;10365;52.578;8.138;2024-01-27T12:52:23;16.15;;;6.10;;
20411;SDS011;10365;52.578;8.138;2024-01-27T12:54:49;15.73;;;6.13;;
20411;SDS011;10365;52.578;8.138;2024-01-27T12:57:15;17.27;;;5.57;;
20411;SDS011;10365;52.578;8.138;2024-01-27T12:59:40;21.50;;;5.93;;
20411;SDS011;10365;52.578;8.138;2024-01-27T13:02:06;17.30;;;5.53;;
20411;SDS011;10365;52.578;8.138;2024-01-27T13:04:31;12.40;;;4.93;;
20411;SDS011;10365;52.578;8.138;2024-01-27T13:06:56;11.27;;;4.63;;
20411;SDS011;10365;52.578;8.138;2024-01-27T13:09:22;14.07;;;5.38;;
20411;SDS011;10365;52.578;8.138;2024-01-27T13:11:47;16.02;;;5.20;;
20411;SDS011;10365;52.578;8.138;2024-01-27T13:14:12;12.00;;;5.50;;
20411;SDS011;10365;52.578;8.138;2024-01-27T13:16:39;17.02;;;6.00;;
20411;SDS011;10365;52.578;8.138;2024-01-27T13:19:06;13.90;;;4.82;;
20411;SDS011;10365;52.578;8.138;2024-01-27T13:21:31;12.77;;;4.63;;
20411;SDS011;10365;52.578;8.138;2024-01-27T13:23:56;16.90;;;4.82;;
20411;SDS011;10365;52.578;8.138;2024-01-27T13:26:22;16.25;;;4.00;;
20411;SDS011;10365;52.578;8.138;2024-01-27T13:28:47;16.30;;;4.65;;
20411;SDS011;10365;52.578;8.138;2024-01-27T13:31:16;23.17;;;5.22;;
20411;SDS011;10365;52.578;8.138;2024-01-27T13:33:41;21.58;;;4.45;;
20411;SDS011;10365;52.578;8.138;2024-01-27T13:36:07;12.30;;;4.28;;
20411;SDS011;10365;52.578;8.138;2024-01-27T13:38:32;12.30;;;4.50;;
20411;SDS011;10365;52.578;8.138;2024-01-27T13:40:59;15.73;;;5.15;;
20411;SDS011;10365;52.578;8.138;2024-01-27T13:43:24;10.55;;;4.43;;
20411;SDS011;10365;52.578;8.138;2024-01-27T13:45:50;15.23;;;4.72;;
20411;SDS011;10365;52.578;8.138;2024-01-27T13:48:16;17.13;;;4.78;;
20411;SDS011;10365;52.578;8.138;2024-01-27T13:50:41;14.95;;;4.80;;
20411;SDS011;10365;52.578;8.138;2024-01-27T13:53:07;14.70;;;4.60;;
20411;SDS011;10365;52.578;8.138;2024-01-27T13:55:32;23.75;;;5.25;;
20411;SDS011;10365;52.578;8.138;2024-01-27T13:57:57;19.25;;;5.43;;
20411;SDS011;10365;52.578;8.138;2024-01-27T14:00:22;18.58;;;5.85;;
20411;SDS011;10365;52.578;8.138;2024-01-27T14:02:48;19.05;;;4.32;;
20411;SDS011;10365;52.578;8.138;2024-01-27T14:05:13;17.40;;;4.32;;
20411;SDS011;10365;52.578;8.138;2024-01-27T14:07:38;11.45;;;4.20;;
20411;SDS011;10365;52.578;8.138;2024-01-27T14:10:04;19.95;;;4.95;;
20411;SDS011;10365;52.578;8.138;2024-01-27T14:12:29;26.08;;;7.05;;
20411;SDS011;10365;52.578;8.138;2024-01-27T14:15:01;18.67;;;4.75;;
20411;SDS011;10365;52.578;8.138;2024-01-27T14:17:27;20.08;;;5.50;;
20411;SDS011;10365;52.578;8.138;2024-01-27T14:19:52;18.17;;;5.35;;
20411;SDS011;10365;52.578;8.138;2024-01-27T14:22:18;18.38;;;4.43;;
20411;SDS011;10365;52.578;8.138;2024-01-27T14:24:43;18.83;;;4.82;;
20411;SDS011;10365;52.578;8.138;2024-01-27T14:27:10;18.85;;;4.35;;